sensor_id;sensor_type;location;lat;lon;timestamp;pressure;altitude;pressure_sealevel;temperature;humidity
41264;BME280;26998;48.714;9.414;2023-03-04T00:00:41;99769.25;;;-0.99;100.00
41264;BME280;26998;48.714;9.414;2023-03-04T00:03:08;99768.31;;;-0.98;100.00
41264;BME280;26998;48.714;9.414;2023-03-04T00:05:36;99765.16;;;-1.03;100.00
41264;BME280;26998;48.714;9.414;2023-03-04T00:08:03;99770.22;;;-1.00;100.00
41264;BME280;26998;48.714;9.414;2023-03-04T00:10:29;99769.97;;;-0.97;100.00
41264;BME280;26998;48.714;9.414;2023-03-04T00:12:56;99774.72;;;-1.02;100.00
41264;BME280;26998;48.714;9.414;2023-03-04T00:15:23;99766.69;;;-1.13;100.00
41264;BME280;26998;48.714;9.414;2023-03-04T00:17:50;99771.09;;;-1.13;100.00
41264;BME280;26998;48.714;9.414;2023-03-04T00:20:16;99771.81;;;-1.24;100.00
41264;BME280;26998;48.714;9.414;2023-03-04T00:22:43;99769.69;;;-1.32;100.00
41264;BME280;26998;48.714;9.414;2023-03-04T00:25:10;99772.00;;;-1.40;100.00
41264;BME280;26998;48.714;9.414;2023-03-04T00:27:37;99781.13;;;-1.33;100.00
41264;BME280;26998;48.714;9.414;2023-03-04T00:30:07;99773.34;;;-1.34;100.00
41264;BME280;26998;48.714;9.414;2023-03-04T00:32:33;99770.31;;;-1.28;100.00
41264;BME280;26998;48.714;9.414;2023-03-04T00:35:00;99764.25;;;-1.29;100.00
41264;BME280;26998;48.714;9.414;2023-03-04T00:37:27;99772.44;;;-1.33;100.00
41264;BME280;26998;48.714;9.414;2023-03-04T00:39:53;99764.00;;;-1.38;100.00
41264;BME280;26998;48.714;9.414;2023-03-04T00:42:20;99765.47;;;-1.34;100.00
41264;BME280;26998;48.714;9.414;2023-03-04T00:44:47;99775.25;;;-1.36;100.00
41264;BME280;26998;48.714;9.414;2023-03-04T00:47:13;99767.38;;;-1.36;100.00
41264;BME280;26998;48.714;9.414;2023-03-04T00:49:40;99774.81;;;-1.43;100.00
41264;BME280;26998;48.714;9.414;2023-03-04T00:52:07;99766.94;;;-1.43;100.00
41264;BME280;26998;48.714;9.414;2023-03-04T00:54:33;99770.41;;;-1.43;100.00
41264;BME280;26998;48.714;9.414;2023-03-04T00:57:00;99773.09;;;-1.44;100.00
41264;BME280;26998;48.714;9.414;2023-03-04T00:59:26;99773.09;;;-1.44;100.00
41264;BME280;26998;48.714;9.414;2023-03-04T01:01:53;99767.41;;;-1.51;100.00
41264;BME280;26998;48.714;9.414;2023-03-04T01:04:20;99767.34;;;-1.49;100.00
41264;BME280;26998;48.714;9.414;2023-03-04T01:06:46;99765.00;;;-1.54;100.00
41264;BME280;26998;48.714;9.414;2023-03-04T01:09:13;99756.38;;;-1.56;100.00
41264;BME280;26998;48.714;9.414;2023-03-04T01:11:39;99761.81;;;-1.59;100.00
41264;BME280;26998;48.714;9.414;2023-03-04T01:14:06;99760.06;;;-1.58;100.00
41264;BME280;26998;48.714;9.414;2023-03-04T01:16:33;99759.41;;;-1.62;100.00
41264;BME280;26998;48.714;9.414;2023-03-04T01:19:00;99759.81;;;-1.68;100.00
41264;BME280;26998;48.714;9.414;2023-03-04T01:21:27;99758.31;;;-1.72;100.00
41264;BME280;26998;48.714;9.414;2023-03-04T01:23:54;99758.44;;;-1.74;100.00
41264;BME280;26998;48.714;9.414;2023-03-04T01:26:21;99751.78;;;-1.79;100.00
41264;BME280;26998;48.714;9.414;2023-03-04T01:28:47;99748.59;;;-1.84;100.00
41264;BME280;26998;48.714;9.414;2023-03-04T01:31:14;99742.84;;;-1.90;100.00
41264;BME280;26998;48.714;9.414;2023-03-04T01:33:41;99751.63;;;-1.91;100.00
41264;BME280;26998;48.714;9.414;2023-03-04T01:36:08;99747.88;;;-1.87;100.00
41264;BME280;26998;48.714;9.414;2023-03-04T01:38:34;99748.81;;;-1.88;100.00
41264;BME280;26998;48.714;9.414;2023-03-04T01:41:01;99742.09;;;-1.92;100.00
41264;BME280;26998;48.714;9.414;2023-03-04T01:43:29;99738.72;;;-1.94;100.00
41264;BME280;26998;48.714;9.414;2023-03-04T01:45:57;99738.91;;;-1.97;100.00
41264;BME280;26998;48.714;9.414;2023-03-04T01:48:27;99746.13;;;-2.00;100.00
41264;BME280;26998;48.714;9.414;2023-03-04T01:50:56;99740.78;;;-1.99;100.00
41264;BME280;26998;48.714;9.414;2023-03-04T01:53:24;99750.53;;;-2.01;100.00
41264;BME280;26998;48.714;9.414;2023-03-04T01:55:53;99748.00;;;-2.02;100.00
41264;BME280;26998;48.714;9.414;2023-03-04T01:58:25;99739.28;;;-2.03;100.00
41264;BME280;26998;48.714;9.414;2023-03-04T02:00:53;99734.03;;;-2.03;100.00
41264;BME280;26998;48.714;9.414;2023-03-04T02:03:20;99734.03;;;-2.03;100.00
41264;BME280;26998;48.714;9.414;2023-03-04T02:05:51;99727.25;;;-2.05;100.00
41264;BME280;26998;48.714;9.414;2023-03-04T02:08:20;99729.00;;;-2.06;100.00
41264;BME280;26998;48.714;9.414;2023-03-04T02:10:49;99727.25;;;-2.05;100.00
41264;BME280;26998;48.714;9.414;2023-03-04T02:13:17;99728.72;;;-2.01;100.00
41264;BME280;26998;48.714;9.414;2023-03-04T02:15:44;99723.56;;;-2.03;100.00
41264;BME280;26998;48.714;9.414;2023-03-04T02:18:18;99728.41;;;-1.97;100.00
41264;BME280;26998;48.714;9.414;2023-03-04T02:21:03;99723.38;;;-2.00;100.00
41264;BME280;26998;48.714;9.414;2023-03-04T02:26:26;99729.31;;;-2.11;100.00
41264;BME280;26998;48.714;9.414;2023-03-04T02:28:55;99722.66;;;-2.16;100.00
41264;BME280;26998;48.714;9.414;2023-03-04T02:31:33;99721.91;;;-2.18;100.00
41264;BME280;26998;48.714;9.414;2023-03-04T02:34:04;99726.50;;;-2.22;100.00
41264;BME280;26998;48.714;9.414;2023-03-04T02:36:31;99724.06;;;-2.25;100.00
41264;BME280;26998;48.714;9.414;2023-03-04T02:39:03;99728.66;;;-2.28;100.00
41264;BME280;26998;48.714;9.414;2023-03-04T02:41:31;99726.25;;;-2.32;100.00
41264;BME280;26998;48.714;9.414;2023-03-04T02:43:57;99725.97;;;-2.27;100.00
41264;BME280;26998;48.714;9.414;2023-03-04T02:46:24;99733.91;;;-2.28;100.00
41264;BME280;26998;48.714;9.414;2023-03-04T02:48:51;99732.31;;;-2.31;100.00
41264;BME280;26998;48.714;9.414;2023-03-04T02:51:18;99730.63;;;-2.32;100.00
41264;BME280;26998;48.714;9.414;2023-03-04T02:53:45;99727.25;;;-2.34;100.00
41264;BME280;26998;48.714;9.414;2023-03-04T02:56:11;99729.03;;;-2.35;100.00
41264;BME280;26998;48.714;9.414;2023-03-04T02:58:38;99729.34;;;-2.39;100.00
41264;BME280;26998;48.714;9.414;2023-03-04T03:01:05;99730.19;;;-2.39;100.00
41264;BME280;26998;48.714;9.414;2023-03-04T03:03:31;99729.41;;;-2.41;100.00
41264;BME280;26998;48.714;9.414;2023-03-04T03:05:58;99726.91;;;-2.42;100.00
41264;BME280;26998;48.714;9.414;2023-03-04T03:08:25;99738.13;;;-2.40;100.00
41264;BME280;26998;48.714;9.414;2023-03-04T03:10:51;99732.03;;;-2.41;100.00
41264;BME280;26998;48.714;9.414;2023-03-04T03:13:18;99738.03;;;-2.39;100.00
41264;BME280;26998;48.714;9.414;2023-03-04T03:15:45;99729.53;;;-2.42;100.00
41264;BME280;26998;48.714;9.414;2023-03-04T03:18:15;99722.69;;;-2.45;100.00
41264;BME280;26998;48.714;9.414;2023-03-04T03:20:41;99718.31;;;-2.44;100.00
41264;BME280;26998;48.714;9.414;2023-03-04T03:23:08;99718.41;;;-2.46;100.00
41264;BME280;26998;48.714;9.414;2023-03-04T03:25:35;99716.16;;;-2.52;100.00
41264;BME280;26998;48.714;9.414;2023-03-04T03:28:01;99715.59;;;-2.57;100.00
41264;BME280;26998;48.714;9.414;2023-03-04T03:30:29;99713.34;;;-2.63;100.00
41264;BME280;26998;48.714;9.414;2023-03-04T03:32:56;99706.81;;;-2.56;100.00
41264;BME280;26998;48.714;9.414;2023-03-04T03:35:22;99692.81;;;-2.55;100.00
41264;BME280;26998;48.714;9.414;2023-03-04T03:37:49;99699.78;;;-2.56;100.00
41264;BME280;26998;48.714;9.414;2023-03-04T03:40:15;99698.13;;;-2.57;100.00
41264;BME280;26998;48.714;9.414;2023-03-04T03:42:42;99699.72;;;-2.54;100.00
41264;BME280;26998;48.714;9.414;2023-03-04T03:45:09;99699.06;;;-2.58;100.00
41264;BME280;26998;48.714;9.414;2023-03-04T03:47:35;99696.44;;;-2.58;100.00
41264;BME280;26998;48.714;9.414;2023-03-04T03:50:03;99697.56;;;-2.62;100.00
41264;BME280;26998;48.714;9.414;2023-03-04T03:52:30;99700.28;;;-2.63;100.00
41264;BME280;26998;48.714;9.414;2023-03-04T03:54:56;99694.19;;;-2.64;100.00
41264;BME280;26998;48.714;9.414;2023-03-04T03:57:27;99703.84;;;-2.64;100.00
41264;BME280;26998;48.714;9.414;2023-03-04T03:59:55;99710.28;;;-2.70;100.00
41264;BME280;26998;48.714;9.414;2023-03-04T04:02:22;99707.72;;;-2.71;100.00
41264;BME280;26998;48.714;9.414;2023-03-04T04:04:49;99712.97;;;-2.71;100.00
41264;BME280;26998;48.714;9.414;2023-03-04T04:07:16;99713.66;;;-2.68;100.00
41264;BME280;26998;48.714;9.414;2023-03-04T04:09:42;99714.94;;;-2.75;100.00
41264;BME280;26998;48.714;9.414;2023-03-04T04:12:11;99716.91;;;-2.79;100.00
41264;BME280;26998;48.714;9.414;2023-03-04T04:14:38;99714.28;;;-2.79;100.00
41264;BME280;26998;48.714;9.414;2023-03-04T04:17:05;99712.03;;;-2.85;100.00
41264;BME280;26998;48.714;9.414;2023-03-04T04:19:31;99713.34;;;-2.92;100.00
41264;BME280;26998;48.714;9.414;2023-03-04T04:21:58;99711.75;;;-2.94;100.00
41264;BME280;26998;48.714;9.414;2023-03-04T04:24:25;99712.09;;;-3.00;100.00
41264;BME280;26998;48.714;9.414;2023-03-04T04:26:51;99709.41;;;-2.99;100.00
41264;BME280;26998;48.714;9.414;2023-03-04T04:29:18;99711.34;;;-3.03;100.00
41264;BME280;26998;48.714;9.414;2023-03-04T04:31:45;99709.41;;;-2.99;100.00
41264;BME280;26998;48.714;9.414;2023-03-04T04:34:11;99707.53;;;-2.97;100.00
41264;BME280;26998;48.714;9.414;2023-03-04T04:36:40;99704.25;;;-3.00;100.00
41264;BME280;26998;48.714;9.414;2023-03-04T04:39:07;99710.25;;;-2.98;100.00
41264;BME280;26998;48.714;9.414;2023-03-04T04:41:36;99707.91;;;-3.03;100.00
41264;BME280;26998;48.714;9.414;2023-03-04T04:44:03;99705.38;;;-3.05;100.00
41264;BME280;26998;48.714;9.414;2023-03-04T04:46:30;99703.88;;;-3.09;100.00
41264;BME280;26998;48.714;9.414;2023-03-04T04:48:56;99706.59;;;-3.10;100.00
41264;BME280;26998;48.714;9.414;2023-03-04T04:51:23;99706.75;;;-3.13;100.00
41264;BME280;26998;48.714;9.414;2023-03-04T04:53:49;99714.03;;;-3.18;100.00
41264;BME280;26998;48.714;9.414;2023-03-04T04:56:22;99707.19;;;-3.21;100.00
41264;BME280;26998;48.714;9.414;2023-03-04T04:58:49;99716.16;;;-3.25;100.00
41264;BME280;26998;48.714;9.414;2023-03-04T05:01:16;99711.22;;;-3.30;100.00
41264;BME280;26998;48.714;9.414;2023-03-04T05:03:42;99719.63;;;-3.25;100.00
41264;BME280;26998;48.714;9.414;2023-03-04T05:06:10;99719.78;;;-3.28;100.00
41264;BME280;26998;48.714;9.414;2023-03-04T05:08:38;99721.56;;;-3.28;100.00
41264;BME280;26998;48.714;9.414;2023-03-04T05:11:05;99717.94;;;-3.26;100.00
41264;BME280;26998;48.714;9.414;2023-03-04T05:13:33;99716.25;;;-3.27;100.00
41264;BME280;26998;48.714;9.414;2023-03-04T05:16:00;99714.91;;;-3.34;100.00
41264;BME280;26998;48.714;9.414;2023-03-04T05:18:27;99723.53;;;-3.32;100.00
41264;BME280;26998;48.714;9.414;2023-03-04T05:20:59;99720.06;;;-3.32;100.00
41264;BME280;26998;48.714;9.414;2023-03-04T05:23:29;99723.53;;;-3.32;100.00
41264;BME280;26998;48.714;9.414;2023-03-04T05:25:56;99725.56;;;-3.37;100.00
41264;BME280;26998;48.714;9.414;2023-03-04T05:28:22;99723.97;;;-3.39;100.00
41264;BME280;26998;48.714;9.414;2023-03-04T05:30:49;99729.47;;;-3.44;100.00
41264;BME280;26998;48.714;9.414;2023-03-04T05:33:16;99723.97;;;-3.39;100.00
41264;BME280;26998;48.714;9.414;2023-03-04T05:35:44;99726.41;;;-3.36;100.00
41264;BME280;26998;48.714;9.414;2023-03-04T05:38:13;99724.81;;;-3.39;100.00
41264;BME280;26998;48.714;9.414;2023-03-04T05:40:41;99724.16;;;-3.42;100.00
41264;BME280;26998;48.714;9.414;2023-03-04T05:43:08;99717.81;;;-3.38;100.00
41264;BME280;26998;48.714;9.414;2023-03-04T05:45:35;99715.28;;;-3.40;100.00
41264;BME280;26998;48.714;9.414;2023-03-04T05:48:02;99721.03;;;-3.49;100.00
41264;BME280;26998;48.714;9.414;2023-03-04T05:50:29;99723.56;;;-3.47;100.00
41264;BME280;26998;48.714;9.414;2023-03-04T05:52:56;99720.97;;;-3.47;100.00
41264;BME280;26998;48.714;9.414;2023-03-04T05:55:23;99729.81;;;-3.50;100.00
41264;BME280;26998;48.714;9.414;2023-03-04T05:57:50;99726.59;;;-3.55;100.00
41264;BME280;26998;48.714;9.414;2023-03-04T06:00:17;99721.19;;;-3.52;100.00
41264;BME280;26998;48.714;9.414;2023-03-04T06:02:44;99730.81;;;-3.53;100.00
41264;BME280;26998;48.714;9.414;2023-03-04T06:05:12;99730.16;;;-3.56;100.00
41264;BME280;26998;48.714;9.414;2023-03-04T06:07:40;99736.03;;;-3.53;100.00
41264;BME280;26998;48.714;9.414;2023-03-04T06:10:08;99745.75;;;-3.55;100.00
41264;BME280;26998;48.714;9.414;2023-03-04T06:12:34;99747.88;;;-3.61;100.00
41264;BME280;26998;48.714;9.414;2023-03-04T06:15:01;99758.81;;;-3.55;100.00
41264;BME280;26998;48.714;9.414;2023-03-04T06:17:28;99754.59;;;-3.57;100.00
41264;BME280;26998;48.714;9.414;2023-03-04T06:19:55;99759.50;;;-3.51;100.00
41264;BME280;26998;48.714;9.414;2023-03-04T06:22:22;99764.72;;;-3.51;100.00
41264;BME280;26998;48.714;9.414;2023-03-04T06:24:49;99771.44;;;-3.47;100.00
41264;BME280;26998;48.714;9.414;2023-03-04T06:27:16;99758.88;;;-3.40;100.00
41264;BME280;26998;48.714;9.414;2023-03-04T06:29:42;99761.41;;;-3.39;100.00
41264;BME280;26998;48.714;9.414;2023-03-04T06:32:09;99771.19;;;-3.42;100.00
41264;BME280;26998;48.714;9.414;2023-03-04T06:34:35;99777.50;;;-3.46;100.00
41264;BME280;26998;48.714;9.414;2023-03-04T06:37:02;99786.28;;;-3.47;100.00
41264;BME280;26998;48.714;9.414;2023-03-04T06:39:29;99794.19;;;-3.49;100.00
41264;BME280;26998;48.714;9.414;2023-03-04T06:41:55;99793.28;;;-3.48;100.00
41264;BME280;26998;48.714;9.414;2023-03-04T06:44:22;99808.47;;;-3.39;100.00
41264;BME280;26998;48.714;9.414;2023-03-04T06:46:49;99796.72;;;-3.32;100.00
41264;BME280;26998;48.714;9.414;2023-03-04T06:49:15;99798.88;;;-3.24;100.00
41264;BME280;26998;48.714;9.414;2023-03-04T06:51:42;99800.06;;;-3.14;100.00
41264;BME280;26998;48.714;9.414;2023-03-04T06:54:09;99808.47;;;-3.09;100.00
41264;BME280;26998;48.714;9.414;2023-03-04T06:56:35;99810.91;;;-3.06;100.00
41264;BME280;26998;48.714;9.414;2023-03-04T06:59:02;99808.63;;;-2.96;100.00
41264;BME280;26998;48.714;9.414;2023-03-04T07:01:29;99814.66;;;-2.80;100.00
41264;BME280;26998;48.714;9.414;2023-03-04T07:03:56;99818.78;;;-2.61;100.00
41264;BME280;26998;48.714;9.414;2023-03-04T07:06:25;99817.28;;;-2.65;100.00
41264;BME280;26998;48.714;9.414;2023-03-04T07:08:52;99821.41;;;-2.61;100.00
41264;BME280;26998;48.714;9.414;2023-03-04T07:11:20;99825.41;;;-2.56;100.00
41264;BME280;26998;48.714;9.414;2023-03-04T07:13:46;99823.84;;;-2.58;100.00
41264;BME280;26998;48.714;9.414;2023-03-04T07:16:16;99833.00;;;-2.51;100.00
41264;BME280;26998;48.714;9.414;2023-03-04T07:18:43;99828.16;;;-2.28;100.00
41264;BME280;26998;48.714;9.414;2023-03-04T07:21:11;99833.31;;;-2.13;100.00
41264;BME280;26998;48.714;9.414;2023-03-04T07:23:38;99829.59;;;-2.08;100.00
41264;BME280;26998;48.714;9.414;2023-03-04T07:26:06;99831.91;;;-1.90;100.00
41264;BME280;26998;48.714;9.414;2023-03-04T07:28:34;99833.13;;;-1.95;100.00
41264;BME280;26998;48.714;9.414;2023-03-04T07:31:27;99829.88;;;-1.99;100.00
41264;BME280;26998;48.714;9.414;2023-03-04T07:33:59;99829.41;;;-2.05;100.00
41264;BME280;26998;48.714;9.414;2023-03-04T07:36:26;99841.81;;;-1.95;100.00
41264;BME280;26998;48.714;9.414;2023-03-04T07:38:53;99843.31;;;-1.91;100.00
41264;BME280;26998;48.714;9.414;2023-03-04T07:41:21;99835.66;;;-2.08;100.00
41264;BME280;26998;48.714;9.414;2023-03-04T07:43:49;99845.00;;;-2.18;100.00
41264;BME280;26998;48.714;9.414;2023-03-04T07:46:17;99846.59;;;-2.16;100.00
41264;BME280;26998;48.714;9.414;2023-03-04T07:48:44;99847.63;;;-2.18;100.00
41264;BME280;26998;48.714;9.414;2023-03-04T07:51:17;99847.16;;;-2.25;100.00
41264;BME280;26998;48.714;9.414;2023-03-04T07:53:46;99858.88;;;-2.02;100.00
41264;BME280;26998;48.714;9.414;2023-03-04T07:56:21;99856.81;;;-2.11;100.00
41264;BME280;26998;48.714;9.414;2023-03-04T07:58:47;99861.22;;;-2.12;100.00
41264;BME280;26998;48.714;9.414;2023-03-04T08:01:19;99860.75;;;-1.90;100.00
41264;BME280;26998;48.714;9.414;2023-03-04T08:03:46;99860.38;;;-1.83;100.00
41264;BME280;26998;48.714;9.414;2023-03-04T08:06:14;99866.34;;;-1.67;100.00
41264;BME280;26998;48.714;9.414;2023-03-04T08:08:42;99867.22;;;-1.40;100.00
41264;BME280;26998;48.714;9.414;2023-03-04T08:11:11;99865.53;;;-1.41;100.00
41264;BME280;26998;48.714;9.414;2023-03-04T08:13:37;99871.88;;;-1.30;100.00
41264;BME280;26998;48.714;9.414;2023-03-04T08:16:05;99877.25;;;-1.19;100.00
41264;BME280;26998;48.714;9.414;2023-03-04T08:18:32;99872.41;;;-1.25;100.00
41264;BME280;26998;48.714;9.414;2023-03-04T08:20:59;99876.44;;;-1.20;100.00
41264;BME280;26998;48.714;9.414;2023-03-04T08:23:25;99884.63;;;-0.84;100.00
41264;BME280;26998;48.714;9.414;2023-03-04T08:25:52;99872.88;;;-0.91;100.00
41264;BME280;26998;48.714;9.414;2023-03-04T08:28:19;99876.16;;;-0.75;100.00
41264;BME280;26998;48.714;9.414;2023-03-04T08:30:51;99865.81;;;-0.91;100.00
41264;BME280;26998;48.714;9.414;2023-03-04T08:33:18;99886.38;;;-0.71;100.00
41264;BME280;26998;48.714;9.414;2023-03-04T08:35:45;99880.53;;;-0.49;100.00
41264;BME280;26998;48.714;9.414;2023-03-04T08:38:11;99877.84;;;-0.34;100.00
41264;BME280;26998;48.714;9.414;2023-03-04T08:40:38;99868.47;;;-0.38;100.00
41264;BME280;26998;48.714;9.414;2023-03-04T08:43:05;99868.66;;;-0.41;100.00
41264;BME280;26998;48.714;9.414;2023-03-04T08:45:31;99872.31;;;-0.57;100.00
41264;BME280;26998;48.714;9.414;2023-03-04T08:47:57;99875.28;;;-0.49;100.00
41264;BME280;26998;48.714;9.414;2023-03-04T08:50:24;99880.81;;;-0.53;100.00
41264;BME280;26998;48.714;9.414;2023-03-04T08:52:50;99887.66;;;-0.51;100.00
41264;BME280;26998;48.714;9.414;2023-03-04T08:55:20;99881.91;;;-0.56;100.00
41264;BME280;26998;48.714;9.414;2023-03-04T08:57:46;99893.72;;;-0.63;100.00
41264;BME280;26998;48.714;9.414;2023-03-04T09:00:13;99897.75;;;-0.57;100.00
41264;BME280;26998;48.714;9.414;2023-03-04T09:02:40;99902.69;;;-0.65;100.00
41264;BME280;26998;48.714;9.414;2023-03-04T09:05:08;99904.56;;;-0.55;100.00
41264;BME280;26998;48.714;9.414;2023-03-04T09:07:35;99902.59;;;-0.51;100.00
41264;BME280;26998;48.714;9.414;2023-03-04T09:10:02;99900.59;;;-0.48;100.00
41264;BME280;26998;48.714;9.414;2023-03-04T09:12:29;99890.03;;;-0.33;100.00
41264;BME280;26998;48.714;9.414;2023-03-04T09:14:56;99887.59;;;-0.36;100.00
41264;BME280;26998;48.714;9.414;2023-03-04T09:17:36;99897.75;;;-0.44;100.00
41264;BME280;26998;48.714;9.414;2023-03-04T09:20:03;99897.97;;;-0.48;100.00
41264;BME280;26998;48.714;9.414;2023-03-04T09:22:30;99901.03;;;-0.41;100.00
41264;BME280;26998;48.714;9.414;2023-03-04T09:24:57;99903.56;;;-0.27;100.00
41264;BME280;26998;48.714;9.414;2023-03-04T09:27:24;99897.28;;;-0.11;100.00
41264;BME280;26998;48.714;9.414;2023-03-04T09:29:50;99879.94;;;-0.27;100.00
41264;BME280;26998;48.714;9.414;2023-03-04T09:32:17;99876.81;;;-0.06;100.00
41264;BME280;26998;48.714;9.414;2023-03-04T09:34:43;99878.25;;;-0.15;100.00
41264;BME280;26998;48.714;9.414;2023-03-04T09:37:10;99871.22;;;-0.27;100.00
41264;BME280;26998;48.714;9.414;2023-03-04T09:39:37;99868.25;;;-0.22;100.00
41264;BME280;26998;48.714;9.414;2023-03-04T09:42:05;99863.97;;;-0.11;100.00
41264;BME280;26998;48.714;9.414;2023-03-04T09:44:39;99865.00;;;-0.01;100.00
41264;BME280;26998;48.714;9.414;2023-03-04T09:47:10;99865.84;;;0.13;100.00
41264;BME280;26998;48.714;9.414;2023-03-04T09:49:39;99839.34;;;0.16;100.00
41264;BME280;26998;48.714;9.414;2023-03-04T09:55:05;99837.19;;;0.34;100.00
41264;BME280;26998;48.714;9.414;2023-03-04T10:00:29;99824.66;;;0.50;100.00
41264;BME280;26998;48.714;9.414;2023-03-04T10:03:14;99810.13;;;0.81;100.00
41264;BME280;26998;48.714;9.414;2023-03-04T10:05:57;99793.91;;;0.75;100.00
41264;BME280;26998;48.714;9.414;2023-03-04T10:10:59;99794.94;;;0.85;100.00
41264;BME280;26998;48.714;9.414;2023-03-04T10:13:37;99785.97;;;0.63;100.00
41264;BME280;26998;48.714;9.414;2023-03-04T10:16:08;99791.00;;;0.66;100.00
41264;BME280;26998;48.714;9.414;2023-03-04T10:18:46;99791.13;;;0.89;100.00
41264;BME280;26998;48.714;9.414;2023-03-04T10:24:18;99756.81;;;1.02;100.00
41264;BME280;26998;48.714;9.414;2023-03-04T10:26:50;99741.38;;;0.97;100.00
41264;BME280;26998;48.714;9.414;2023-03-04T10:29:18;99746.59;;;0.86;100.00
41264;BME280;26998;48.714;9.414;2023-03-04T10:31:45;99748.44;;;0.97;100.00
41264;BME280;26998;48.714;9.414;2023-03-04T10:34:13;99748.41;;;0.85;100.00
41264;BME280;26998;48.714;9.414;2023-03-04T10:36:54;99757.06;;;0.75;100.00
41264;BME280;26998;48.714;9.414;2023-03-04T10:39:29;99750.81;;;1.00;100.00
41264;BME280;26998;48.714;9.414;2023-03-04T10:41:59;99735.19;;;1.09;100.00
41264;BME280;26998;48.714;9.414;2023-03-04T10:44:27;99737.41;;;0.91;100.00
41264;BME280;26998;48.714;9.414;2023-03-04T10:46:56;99729.53;;;1.03;100.00
41264;BME280;26998;48.714;9.414;2023-03-04T10:49:24;99725.72;;;1.07;100.00
41264;BME280;26998;48.714;9.414;2023-03-04T10:56:55;99692.59;;;1.15;100.00
41264;BME280;26998;48.714;9.414;2023-03-04T10:59:46;99669.28;;;1.22;100.00
41264;BME280;26998;48.714;9.414;2023-03-04T11:02:38;99654.63;;;1.18;100.00
41264;BME280;26998;48.714;9.414;2023-03-04T11:05:20;99645.09;;;1.28;100.00
41264;BME280;26998;48.714;9.414;2023-03-04T11:07:52;99632.63;;;1.42;100.00
41264;BME280;26998;48.714;9.414;2023-03-04T11:10:30;99631.78;;;1.52;100.00
41264;BME280;26998;48.714;9.414;2023-03-04T11:13:01;99624.59;;;1.54;100.00
41264;BME280;26998;48.714;9.414;2023-03-04T11:15:50;99597.63;;;1.73;100.00
41264;BME280;26998;48.714;9.414;2023-03-04T11:18:27;99567.50;;;2.19;100.00
41264;BME280;26998;48.714;9.414;2023-03-04T11:20:59;99533.59;;;2.36;100.00
41264;BME280;26998;48.714;9.414;2023-03-04T11:23:34;99506.13;;;2.38;100.00
41264;BME280;26998;48.714;9.414;2023-03-04T11:26:13;99496.81;;;2.34;100.00
41264;BME280;26998;48.714;9.414;2023-03-04T11:28:46;99489.16;;;2.31;100.00
41264;BME280;26998;48.714;9.414;2023-03-04T11:31:37;99467.81;;;2.13;100.00
41264;BME280;26998;48.714;9.414;2023-03-04T11:34:22;99476.59;;;2.23;100.00
41264;BME280;26998;48.714;9.414;2023-03-04T11:37:11;99468.75;;;2.33;100.00
41264;BME280;26998;48.714;9.414;2023-03-04T11:39:55;99460.16;;;2.31;100.00
41264;BME280;26998;48.714;9.414;2023-03-04T11:42:46;99444.63;;;2.38;100.00
41264;BME280;26998;48.714;9.414;2023-03-04T11:45:16;99441.72;;;2.41;100.00
41264;BME280;26998;48.714;9.414;2023-03-04T11:48:14;99442.41;;;2.43;100.00
41264;BME280;26998;48.714;9.414;2023-03-04T11:50:47;99450.16;;;2.35;100.00
41264;BME280;26998;48.714;9.414;2023-03-04T11:56:19;99458.34;;;2.11;100.00
41264;BME280;26998;48.714;9.414;2023-03-04T11:59:22;99439.31;;;2.28;100.00
41264;BME280;26998;48.714;9.414;2023-03-04T12:02:12;99438.47;;;2.06;100.00
41264;BME280;26998;48.714;9.414;2023-03-04T12:07:53;99431.19;;;2.20;100.00
41264;BME280;26998;48.714;9.414;2023-03-04T12:10:32;99425.59;;;2.34;100.00
41264;BME280;26998;48.714;9.414;2023-03-04T12:16:14;99420.78;;;2.18;100.00
41264;BME280;26998;48.714;9.414;2023-03-04T12:24:30;99409.06;;;2.11;100.00
41264;BME280;26998;48.714;9.414;2023-03-04T12:29:57;99390.09;;;2.17;100.00
41264;BME280;26998;48.714;9.414;2023-03-04T12:33:29;99385.50;;;2.10;100.00
41264;BME280;26998;48.714;9.414;2023-03-04T12:35:51;99372.81;;;2.24;100.00
41264;BME280;26998;48.714;9.414;2023-03-04T12:44:12;99352.34;;;2.17;100.00
41264;BME280;26998;48.714;9.414;2023-03-04T12:55:36;99328.03;;;2.13;100.00
41264;BME280;26998;48.714;9.414;2023-03-04T12:58:26;99335.56;;;1.87;100.00
41264;BME280;26998;48.714;9.414;2023-03-04T13:00:56;99342.06;;;2.14;100.00
41264;BME280;26998;48.714;9.414;2023-03-04T13:06:06;99323.69;;;2.43;100.00
41264;BME280;26998;48.714;9.414;2023-03-04T13:16:58;99313.03;;;2.54;100.00
41264;BME280;26998;48.714;9.414;2023-03-04T13:22:25;99308.28;;;2.38;100.00
41264;BME280;26998;48.714;9.414;2023-03-04T13:24:53;99311.88;;;2.27;100.00
41264;BME280;26998;48.714;9.414;2023-03-04T13:43:27;99316.47;;;2.35;100.00
41264;BME280;26998;48.714;9.414;2023-03-04T13:51:16;99323.75;;;2.12;100.00
41264;BME280;26998;48.714;9.414;2023-03-04T13:56:26;99332.69;;;1.90;100.00
41264;BME280;26998;48.714;9.414;2023-03-04T13:59:21;99336.34;;;2.08;100.00
41264;BME280;26998;48.714;9.414;2023-03-04T14:04:40;99337.75;;;2.13;100.00
41264;BME280;26998;48.714;9.414;2023-03-04T14:07:28;99331.13;;;2.18;100.00
41264;BME280;26998;48.714;9.414;2023-03-04T14:10:07;99336.75;;;2.04;100.00
41264;BME280;26998;48.714;9.414;2023-03-04T14:12:57;99337.84;;;2.01;100.00
41264;BME280;26998;48.714;9.414;2023-03-04T14:15:30;99343.06;;;1.92;100.00
41264;BME280;26998;48.714;9.414;2023-03-04T14:17:58;99342.72;;;1.75;100.00
41264;BME280;26998;48.714;9.414;2023-03-04T14:20:29;99343.41;;;1.77;100.00
41264;BME280;26998;48.714;9.414;2023-03-04T14:22:57;99345.88;;;1.69;100.00
41264;BME280;26998;48.714;9.414;2023-03-04T14:25:30;99344.63;;;1.73;100.00
41264;BME280;26998;48.714;9.414;2023-03-04T14:28:15;99343.34;;;1.89;100.00
41264;BME280;26998;48.714;9.414;2023-03-04T14:30:50;99332.16;;;1.75;100.00
41264;BME280;26998;48.714;9.414;2023-03-04T14:33:21;99334.84;;;1.85;100.00
41264;BME280;26998;48.714;9.414;2023-03-04T14:35:50;99322.97;;;1.91;100.00
41264;BME280;26998;48.714;9.414;2023-03-04T14:38:40;99326.94;;;1.85;100.00